createdAt,value
2017-12-17T00:00:07.472Z,8.35
2017-12-17T00:02:34.396Z,7.70
2017-12-17T00:05:02.073Z,3.58
2017-12-17T00:07:29.549Z,4.55
2017-12-17T00:09:56.455Z,7.12
2017-12-17T00:12:23.416Z,5.47
2017-12-17T00:14:50.344Z,5.87
2017-12-17T00:17:19.041Z,5.90
2017-12-17T00:19:46.808Z,8.00
2017-12-17T00:22:14.493Z,7.43
2017-12-17T00:24:41.403Z,6.57
2017-12-17T00:27:09.084Z,7.15
2017-12-17T00:29:36.021Z,6.87
2017-12-17T00:32:02.955Z,7.47
2017-12-17T00:34:30.628Z,5.00
2017-12-17T00:36:57.540Z,4.47
2017-12-17T00:39:24.440Z,7.43
2017-12-17T00:41:51.356Z,7.40
2017-12-17T00:44:19.026Z,6.45
2017-12-17T00:46:45.941Z,5.20
2017-12-17T00:49:12.853Z,4.32
2017-12-17T00:51:39.777Z,6.50
2017-12-17T00:54:06.690Z,3.65
2017-12-17T00:56:34.369Z,7.25
2017-12-17T00:59:01.308Z,9.02
2017-12-17T01:01:28.208Z,7.18
2017-12-17T01:03:55.134Z,4.55
2017-12-17T01:06:22.032Z,6.05
2017-12-17T01:08:49.728Z,5.25
2017-12-17T01:11:16.632Z,4.22
2017-12-17T01:13:44.321Z,4.95
2017-12-17T01:16:12.154Z,6.37
2017-12-17T01:18:39.840Z,3.47
2017-12-17T01:21:06.739Z,5.22
2017-12-17T01:23:33.660Z,5.35
2017-12-17T01:26:00.560Z,4.35
2017-12-17T01:28:28.245Z,5.57
2017-12-17T01:30:55.151Z,5.55
2017-12-17T01:33:22.072Z,3.17
2017-12-17T01:35:48.984Z,3.05
2017-12-17T01:38:15.917Z,9.65
2017-12-17T01:40:42.817Z,4.75
2017-12-17T01:43:09.738Z,4.03
2017-12-17T01:45:36.645Z,2.62
2017-12-17T01:48:03.566Z,3.28
2017-12-17T01:50:31.240Z,4.72
2017-12-17T01:52:58.165Z,3.90
2017-12-17T01:55:25.832Z,2.70
2017-12-17T01:57:53.522Z,5.80
2017-12-17T02:00:20.436Z,4.65
2017-12-17T02:02:48.125Z,6.95
2017-12-17T02:05:15.032Z,3.80
2017-12-17T02:07:41.986Z,5.68
2017-12-17T02:10:09.658Z,5.45
2017-12-17T02:12:37.339Z,4.80
2017-12-17T02:15:04.261Z,6.37
2017-12-17T02:17:31.975Z,7.50
2017-12-17T02:19:58.887Z,4.50
2017-12-17T02:22:25.796Z,3.40
2017-12-17T02:24:53.485Z,5.28
2017-12-17T02:27:21.321Z,3.35
2017-12-17T02:29:49.021Z,6.80
2017-12-17T02:32:15.941Z,4.55
2017-12-17T02:34:43.624Z,3.55
2017-12-17T02:37:10.528Z,6.85
2017-12-17T02:39:37.452Z,5.32
2017-12-17T02:42:04.351Z,8.13
2017-12-17T02:44:31.257Z,8.30
2017-12-17T02:46:58.928Z,3.30
2017-12-17T02:49:25.836Z,5.30
2017-12-17T02:51:52.731Z,4.15
2017-12-17T02:54:20.414Z,2.35
2017-12-17T02:56:47.315Z,9.40
2017-12-17T02:59:14.251Z,2.67
2017-12-17T03:01:41.143Z,7.40
2017-12-17T03:04:08.827Z,4.20
2017-12-17T03:06:36.515Z,8.18
2017-12-17T03:09:04.193Z,5.37
2017-12-17T03:11:31.113Z,2.12
2017-12-17T03:13:58.032Z,4.53
2017-12-17T03:16:24.954Z,8.93
2017-12-17T03:18:51.865Z,2.70
2017-12-17T03:21:18.793Z,4.45
2017-12-17T03:23:45.706Z,7.80
2017-12-17T03:26:13.394Z,3.05
2017-12-17T03:28:40.309Z,5.47
2017-12-17T03:31:07.234Z,4.18
2017-12-17T03:33:34.153Z,7.45
2017-12-17T03:36:01.092Z,4.00
2017-12-17T03:38:28.000Z,8.50
2017-12-17T03:40:54.921Z,5.78
2017-12-17T03:43:21.824Z,6.30
2017-12-17T03:45:48.736Z,5.62
2017-12-17T03:48:15.632Z,4.15
2017-12-17T03:50:42.554Z,4.95
2017-12-17T03:53:10.237Z,3.58
2017-12-17T03:55:37.160Z,4.22
2017-12-17T03:58:04.070Z,4.90
2017-12-17T04:00:30.989Z,3.28
2017-12-17T04:02:57.896Z,8.52
2017-12-17T04:05:24.820Z,3.50
2017-12-17T04:07:51.729Z,3.20
2017-12-17T04:10:18.650Z,5.10
2017-12-17T04:12:45.557Z,2.37
2017-12-17T04:15:12.472Z,2.78
2017-12-17T04:17:39.372Z,6.18
2017-12-17T04:20:06.284Z,3.50
2017-12-17T04:22:33.465Z,4.65
2017-12-17T04:25:00.389Z,3.53
2017-12-17T04:27:27.288Z,2.97
2017-12-17T04:29:54.979Z,2.80
2017-12-17T04:32:21.881Z,3.75
2017-12-17T04:34:48.809Z,4.97
2017-12-17T04:37:15.720Z,4.07
2017-12-17T04:39:42.638Z,4.87
2017-12-17T04:42:09.545Z,3.87
2017-12-17T04:44:36.465Z,5.00
2017-12-17T04:47:03.360Z,2.85
2017-12-17T04:49:30.304Z,4.00
2017-12-17T04:51:57.248Z,3.75
2017-12-17T04:54:24.181Z,6.65
2017-12-17T04:56:51.086Z,4.43
2017-12-17T04:59:17.995Z,3.72
2017-12-17T05:01:45.680Z,4.05
2017-12-17T05:04:12.605Z,3.33
2017-12-17T05:06:40.267Z,4.75
2017-12-17T05:09:07.928Z,3.67
2017-12-17T05:11:35.631Z,4.40
2017-12-17T05:14:02.536Z,11.38
2017-12-17T05:16:30.244Z,6.30
2017-12-17T05:18:57.172Z,5.00
2017-12-17T05:21:24.845Z,4.40
2017-12-17T05:23:52.516Z,5.85
2017-12-17T05:26:19.444Z,4.30
2017-12-17T05:28:47.134Z,3.47
2017-12-17T05:31:14.049Z,7.28
2017-12-17T05:33:41.745Z,7.82
2017-12-17T05:36:08.653Z,4.68
2017-12-17T05:38:36.319Z,3.80
2017-12-17T05:41:04.000Z,5.05
2017-12-17T05:43:30.903Z,5.80
2017-12-17T05:45:57.817Z,5.00
2017-12-17T05:48:24.725Z,7.45
2017-12-17T05:50:51.643Z,4.80
2017-12-17T05:53:19.317Z,4.75
2017-12-17T05:55:46.227Z,5.05
2017-12-17T05:58:13.132Z,10.10
2017-12-17T06:00:40.074Z,5.90
2017-12-17T06:03:06.967Z,4.60
2017-12-17T06:05:33.881Z,4.20
2017-12-17T06:08:00.794Z,5.03
2017-12-17T06:10:27.744Z,5.28
2017-12-17T06:12:54.651Z,4.05
2017-12-17T06:15:22.320Z,8.43
2017-12-17T06:17:50.004Z,4.40
2017-12-17T06:20:16.923Z,4.20
2017-12-17T06:22:43.825Z,5.00
2017-12-17T06:25:10.740Z,6.75
2017-12-17T06:27:37.650Z,11.48
2017-12-17T06:30:04.564Z,5.07
2017-12-17T06:32:31.472Z,5.05
2017-12-17T06:34:58.393Z,4.85
2017-12-17T06:37:25.307Z,3.53
2017-12-17T06:39:52.245Z,5.05
2017-12-17T06:42:19.216Z,6.40
2017-12-17T06:44:46.121Z,4.53
2017-12-17T06:47:13.029Z,6.07
2017-12-17T06:49:40.817Z,8.90
2017-12-17T06:52:08.486Z,5.22
2017-12-17T06:54:36.194Z,9.50
2017-12-17T06:57:03.107Z,4.57
2017-12-17T06:59:30.778Z,5.07
2017-12-17T07:01:57.711Z,4.32
2017-12-17T07:04:25.376Z,5.72
2017-12-17T07:06:53.056Z,6.43
2017-12-17T07:09:19.960Z,5.97
2017-12-17T07:11:46.885Z,4.10
2017-12-17T07:14:14.557Z,5.22
2017-12-17T07:16:41.482Z,6.12
2017-12-17T07:19:09.158Z,7.57
2017-12-17T07:21:36.077Z,6.18
2017-12-17T07:24:02.977Z,7.00
2017-12-17T07:26:30.696Z,6.10
2017-12-17T07:28:57.593Z,6.18
2017-12-17T07:31:24.545Z,5.70
2017-12-17T07:33:51.443Z,5.68
2017-12-17T07:36:18.357Z,6.62
2017-12-17T07:38:45.278Z,5.68
2017-12-17T07:41:12.202Z,4.78
2017-12-17T07:43:39.881Z,7.50
2017-12-17T07:46:06.797Z,8.63
2017-12-17T07:48:34.483Z,10.40
2017-12-17T07:51:02.268Z,5.80
2017-12-17T07:53:29.181Z,5.05
2017-12-17T07:55:56.136Z,9.75
2017-12-17T07:58:23.054Z,5.57
2017-12-17T08:00:50.740Z,5.68
2017-12-17T08:03:17.641Z,8.00
2017-12-17T08:05:44.581Z,5.78
2017-12-17T08:08:12.473Z,7.55
2017-12-17T08:10:39.396Z,10.88
2017-12-17T08:13:06.320Z,11.38
2017-12-17T08:15:33.236Z,12.10
2017-12-17T08:18:00.161Z,9.05
2017-12-17T08:20:27.068Z,10.05
2017-12-17T08:22:53.989Z,7.78
2017-12-17T08:25:20.912Z,5.85
2017-12-17T08:27:47.819Z,8.15
2017-12-17T08:30:16.726Z,6.80
2017-12-17T08:32:43.648Z,6.50
2017-12-17T08:35:10.593Z,5.35
2017-12-17T08:37:37.509Z,5.05
2017-12-17T08:40:04.418Z,8.45
2017-12-17T08:42:32.284Z,9.50
2017-12-17T08:44:59.203Z,6.78
2017-12-17T08:47:26.911Z,6.53
2017-12-17T08:49:53.824Z,6.82
2017-12-17T08:52:20.745Z,7.43
2017-12-17T08:54:47.666Z,9.43
2017-12-17T08:57:14.582Z,9.05
2017-12-17T08:59:41.495Z,11.85
2017-12-17T09:02:08.423Z,10.25
2017-12-17T09:04:35.331Z,9.70
2017-12-17T09:07:03.017Z,16.50
2017-12-17T09:09:30.866Z,8.30
2017-12-17T09:11:58.540Z,15.60
2017-12-17T09:14:25.471Z,8.80
2017-12-17T09:16:53.140Z,14.23
2017-12-17T09:19:20.052Z,9.65
2017-12-17T09:21:46.966Z,12.10
2017-12-17T09:24:13.886Z,7.93
2017-12-17T09:26:40.796Z,7.93
2017-12-17T09:29:08.477Z,6.10
2017-12-17T09:31:35.396Z,9.43
2017-12-17T09:34:02.346Z,5.90
2017-12-17T09:36:32.616Z,8.85
2017-12-17T09:38:59.562Z,9.43
2017-12-17T09:41:26.459Z,6.22
2017-12-17T09:43:53.390Z,8.38
2017-12-17T09:46:21.268Z,10.45
2017-12-17T09:48:48.186Z,6.20
2017-12-17T09:51:15.112Z,6.65
2017-12-17T09:53:42.794Z,9.23
2017-12-17T09:56:09.717Z,7.37
2017-12-17T09:58:36.621Z,5.55
2017-12-17T10:01:03.569Z,7.75
2017-12-17T10:03:30.506Z,8.95
2017-12-17T10:05:57.456Z,8.80
2017-12-17T10:08:24.385Z,11.98
2017-12-17T10:10:51.304Z,10.05
2017-12-17T10:13:18.985Z,8.50
2017-12-17T10:15:45.909Z,6.05
2017-12-17T10:18:13.585Z,5.78
2017-12-17T10:20:40.505Z,7.03
2017-12-17T10:23:09.208Z,5.20
2017-12-17T10:25:36.149Z,5.50
2017-12-17T10:28:03.077Z,6.68
2017-12-17T10:30:30.013Z,8.07
2017-12-17T10:32:56.917Z,7.57
2017-12-17T10:35:24.617Z,6.12
2017-12-17T10:37:51.520Z,7.57
2017-12-17T10:40:18.766Z,9.50
2017-12-17T10:42:45.672Z,8.73
2017-12-17T10:45:12.601Z,12.98
2017-12-17T10:47:39.508Z,8.60
2017-12-17T10:50:06.437Z,6.72
2017-12-17T10:52:33.344Z,8.32
2017-12-17T10:55:00.312Z,5.55
2017-12-17T10:57:29.908Z,10.63
2017-12-17T10:59:57.609Z,6.97
2017-12-17T11:02:24.536Z,8.70
2017-12-17T11:04:51.456Z,7.70
2017-12-17T11:07:18.380Z,9.98
2017-12-17T11:09:45.307Z,7.78
2017-12-17T11:12:12.216Z,9.23
2017-12-17T11:14:39.176Z,9.70
2017-12-17T11:17:06.916Z,9.52
2017-12-17T11:19:33.860Z,6.12
2017-12-17T11:22:00.766Z,6.75
2017-12-17T11:24:27.692Z,5.10
2017-12-17T11:26:54.598Z,8.10
2017-12-17T11:29:21.516Z,6.05
2017-12-17T11:31:48.438Z,6.00
2017-12-17T11:34:15.356Z,5.97
2017-12-17T11:36:42.261Z,6.57
2017-12-17T11:39:09.956Z,9.77
2017-12-17T11:41:36.877Z,10.20
2017-12-17T11:44:03.806Z,10.48
2017-12-17T11:46:31.472Z,11.15
2017-12-17T11:48:59.261Z,6.30
2017-12-17T11:51:28.118Z,12.25
2017-12-17T11:53:55.833Z,7.37
2017-12-17T11:56:22.758Z,7.57
2017-12-17T11:58:50.452Z,7.62
2017-12-17T12:01:17.372Z,8.07
2017-12-17T12:03:44.456Z,6.95
2017-12-17T12:06:11.385Z,6.72
2017-12-17T12:08:38.376Z,9.65
2017-12-17T12:11:06.148Z,5.32
2017-12-17T12:13:36.764Z,6.82
2017-12-17T12:16:03.767Z,108.45
2017-12-17T12:18:31.636Z,18.85
2017-12-17T12:20:58.567Z,6.72
2017-12-17T12:23:25.477Z,9.63
2017-12-17T12:25:53.166Z,6.15
2017-12-17T12:28:20.089Z,8.10
2017-12-17T12:30:47.021Z,12.77
2017-12-17T12:33:14.687Z,8.77
2017-12-17T12:35:42.393Z,6.43
2017-12-17T12:38:09.325Z,10.20
2017-12-17T12:40:36.286Z,5.53
2017-12-17T12:43:03.380Z,7.80
2017-12-17T12:45:34.902Z,5.05
2017-12-17T12:48:03.690Z,6.18
2017-12-17T12:50:31.430Z,5.35
2017-12-17T12:52:58.370Z,7.03
2017-12-17T12:55:30.974Z,9.50
2017-12-17T12:57:58.696Z,10.95
2017-12-17T13:00:25.671Z,7.50
2017-12-17T13:02:53.371Z,6.15
2017-12-17T13:05:20.282Z,11.40
2017-12-17T13:07:47.206Z,7.45
2017-12-17T13:10:14.883Z,5.10
2017-12-17T13:12:41.828Z,9.52
2017-12-17T13:15:08.732Z,6.45
2017-12-17T13:17:35.665Z,4.80
2017-12-17T13:20:02.593Z,7.15
2017-12-17T13:22:29.520Z,7.90
2017-12-17T13:24:56.502Z,11.00
2017-12-17T13:27:25.938Z,5.43
2017-12-17T13:29:53.868Z,7.95
2017-12-17T13:32:21.586Z,7.87
2017-12-17T13:34:48.538Z,7.45
2017-12-17T13:37:15.464Z,8.13
2017-12-17T13:39:42.368Z,9.07
2017-12-17T13:42:09.302Z,7.12
2017-12-17T13:44:36.214Z,9.85
2017-12-17T13:47:03.130Z,6.25
2017-12-17T13:49:30.071Z,8.68
2017-12-17T13:51:57.005Z,7.10
2017-12-17T13:54:23.928Z,10.82
2017-12-17T13:56:50.847Z,10.68
2017-12-17T13:59:17.796Z,9.48
2017-12-17T14:01:44.709Z,8.13
2017-12-17T14:04:12.393Z,7.10
2017-12-17T14:06:39.300Z,9.23
2017-12-17T14:09:06.252Z,10.52
2017-12-17T14:11:33.192Z,7.97
2017-12-17T14:14:00.126Z,9.25
2017-12-17T14:16:27.054Z,8.10
2017-12-17T14:18:54.007Z,7.05
2017-12-17T14:21:20.917Z,16.20
2017-12-17T14:23:52.800Z,7.95
2017-12-17T14:26:19.699Z,9.50
2017-12-17T14:28:49.313Z,8.55
2017-12-17T14:31:16.219Z,7.78
2017-12-17T14:33:43.147Z,6.45
2017-12-17T14:36:10.081Z,13.55
2017-12-17T14:38:49.813Z,8.00
2017-12-17T14:41:16.725Z,11.90
2017-12-17T14:43:43.664Z,9.60
2017-12-17T14:46:10.577Z,9.02
2017-12-17T14:48:37.497Z,10.95
2017-12-17T14:51:04.410Z,10.32
2017-12-17T14:53:31.337Z,10.77
2017-12-17T14:55:58.262Z,9.05
2017-12-17T14:58:25.180Z,13.20
2017-12-17T15:00:52.874Z,9.85
2017-12-17T15:03:19.789Z,10.07
2017-12-17T15:05:46.727Z,11.82
2017-12-17T15:08:13.741Z,12.98
2017-12-17T15:10:40.653Z,9.10
2017-12-17T15:13:07.564Z,13.45
2017-12-17T15:15:34.514Z,8.57
2017-12-17T15:18:01.428Z,10.32
2017-12-17T15:20:29.122Z,11.15
2017-12-17T15:22:56.057Z,8.43
2017-12-17T15:25:22.981Z,9.82
2017-12-17T15:27:50.691Z,8.80
2017-12-17T15:30:17.612Z,12.88
2017-12-17T15:32:44.565Z,13.95
2017-12-17T15:35:11.538Z,11.70
2017-12-17T15:37:38.514Z,11.98
2017-12-17T15:40:05.433Z,10.90
2017-12-17T15:42:32.344Z,14.52
2017-12-17T15:44:59.276Z,10.80
2017-12-17T15:47:26.201Z,13.98
2017-12-17T15:49:53.112Z,11.90
2017-12-17T15:52:20.025Z,16.00
2017-12-17T15:54:46.953Z,15.18
2017-12-17T15:57:13.873Z,12.82
2017-12-17T15:59:40.796Z,13.10
2017-12-17T16:02:07.704Z,12.93
2017-12-17T16:04:34.620Z,21.45
2017-12-17T16:07:01.535Z,15.77
2017-12-17T16:09:28.473Z,22.30
2017-12-17T16:11:55.396Z,18.12
2017-12-17T16:14:23.081Z,21.58
2017-12-17T16:16:49.993Z,16.50
2017-12-17T16:19:17.690Z,17.37
2017-12-17T16:21:44.605Z,18.08
2017-12-17T16:24:12.296Z,14.02
2017-12-17T16:26:39.229Z,22.13
2017-12-17T16:29:06.152Z,23.87
2017-12-17T16:31:33.077Z,15.45
2017-12-17T16:34:00.018Z,24.12
2017-12-17T16:36:26.925Z,14.82
2017-12-17T16:38:53.874Z,20.20
2017-12-17T16:41:20.798Z,25.23
2017-12-17T16:43:47.717Z,18.00
2017-12-17T16:46:14.643Z,15.75
2017-12-17T16:48:42.461Z,21.73
2017-12-17T16:51:09.380Z,22.70
2017-12-17T16:53:36.300Z,19.50
2017-12-17T16:56:03.225Z,16.48
2017-12-17T16:58:32.153Z,22.85
2017-12-17T17:00:59.097Z,16.92
2017-12-17T17:03:26.079Z,19.00
2017-12-17T17:05:54.736Z,19.85
2017-12-17T17:08:21.664Z,19.10
2017-12-17T17:10:48.585Z,16.80
2017-12-17T17:13:16.398Z,18.90
2017-12-17T17:15:43.321Z,13.18
2017-12-17T17:18:10.993Z,15.45
2017-12-17T17:20:37.924Z,17.48
2017-12-17T17:23:05.605Z,16.60
2017-12-17T17:25:32.565Z,20.30
2017-12-17T17:27:59.479Z,17.30
2017-12-17T17:30:27.192Z,19.45
2017-12-17T17:32:54.100Z,20.58
2017-12-17T17:35:21.025Z,17.25
2017-12-17T17:37:48.700Z,17.58
2017-12-17T17:40:16.388Z,17.17
2017-12-17T17:42:43.305Z,18.02
2017-12-17T17:45:14.697Z,25.98
2017-12-17T17:47:41.608Z,18.65
2017-12-17T17:50:08.529Z,13.88
2017-12-17T17:52:36.213Z,14.82
2017-12-17T17:55:03.169Z,18.60
2017-12-17T17:57:30.098Z,16.52
2017-12-17T17:59:57.031Z,18.50
2017-12-17T18:02:24.712Z,19.05
2017-12-17T18:04:51.633Z,23.60
2017-12-17T18:07:19.305Z,21.25
2017-12-17T18:09:47.006Z,20.92
2017-12-17T18:12:13.912Z,21.40
2017-12-17T18:14:41.604Z,20.85
2017-12-17T18:17:08.517Z,19.45
2017-12-17T18:19:36.202Z,20.65
2017-12-17T18:22:03.110Z,46.70
2017-12-17T18:24:30.818Z,19.45
2017-12-17T18:26:57.730Z,25.25
2017-12-17T18:29:24.682Z,21.20
2017-12-17T18:31:51.617Z,14.48
2017-12-17T18:34:18.554Z,21.60
2017-12-17T18:36:46.233Z,22.35
2017-12-17T18:39:13.161Z,19.08
2017-12-17T18:41:40.105Z,19.62
2017-12-17T18:44:07.789Z,22.80
2017-12-17T18:46:34.714Z,18.67
2017-12-17T18:49:03.401Z,19.42
2017-12-17T18:51:31.091Z,18.60
2017-12-17T18:54:01.516Z,16.95
2017-12-17T18:56:28.439Z,25.27
2017-12-17T18:58:56.093Z,19.40
2017-12-17T19:01:23.765Z,20.02
2017-12-17T19:03:51.426Z,21.33
2017-12-17T19:06:19.105Z,22.17
2017-12-17T19:08:45.998Z,17.20
2017-12-17T19:11:12.900Z,16.30
2017-12-17T19:13:39.814Z,18.90
2017-12-17T19:16:06.727Z,19.30
2017-12-17T19:18:33.614Z,23.50
2017-12-17T19:21:01.284Z,23.23
2017-12-17T19:23:28.193Z,16.20
2017-12-17T19:25:55.122Z,18.60
2017-12-17T19:28:23.018Z,16.92
2017-12-17T19:30:50.713Z,19.35
2017-12-17T19:33:17.621Z,18.37
2017-12-17T19:35:44.559Z,18.40
2017-12-17T19:38:11.469Z,17.85
2017-12-17T19:40:38.412Z,17.00
2017-12-17T19:43:05.344Z,16.10
2017-12-17T19:45:32.301Z,19.77
2017-12-17T19:47:59.253Z,15.30
2017-12-17T19:50:26.219Z,18.50
2017-12-17T19:52:53.183Z,20.88
2017-12-17T19:55:20.105Z,23.85
2017-12-17T19:57:47.046Z,26.05
2017-12-17T20:00:14.768Z,24.92
2017-12-17T20:02:43.425Z,34.53
2017-12-17T20:05:10.341Z,26.67
2017-12-17T20:07:39.057Z,24.63
2017-12-17T20:10:06.005Z,24.50
2017-12-17T20:12:32.965Z,18.60
2017-12-17T20:14:59.878Z,20.58
2017-12-17T20:17:27.572Z,23.27
2017-12-17T20:19:54.485Z,25.75
2017-12-17T20:22:22.185Z,30.02
2017-12-17T20:24:49.093Z,19.70
2017-12-17T20:27:16.781Z,18.80
2017-12-17T20:29:43.725Z,20.05
2017-12-17T20:32:10.628Z,27.17
2017-12-17T20:34:38.312Z,28.90
2017-12-17T20:37:06.161Z,23.15
2017-12-17T20:39:33.097Z,28.27
2017-12-17T20:42:00.013Z,22.50
2017-12-17T20:44:26.967Z,19.08
2017-12-17T20:46:53.891Z,18.87
2017-12-17T20:49:20.980Z,25.17
2017-12-17T20:51:49.611Z,24.12
2017-12-17T20:54:16.888Z,18.33
2017-12-17T20:56:43.826Z,26.20
2017-12-17T20:59:10.763Z,20.83
2017-12-17T21:01:37.672Z,23.92
2017-12-17T21:04:04.665Z,29.27
2017-12-17T21:06:31.562Z,20.25
2017-12-17T21:08:58.472Z,27.48
2017-12-17T21:11:25.423Z,25.00
2017-12-17T21:13:52.393Z,23.98
2017-12-17T21:16:19.326Z,31.10
2017-12-17T21:18:47.016Z,22.08
2017-12-17T21:21:13.956Z,26.12
2017-12-17T21:23:40.882Z,33.30
2017-12-17T21:26:08.608Z,29.73
2017-12-17T21:28:35.596Z,33.00
2017-12-17T21:31:04.568Z,37.80
2017-12-17T21:33:31.503Z,24.87
2017-12-17T21:35:59.912Z,28.60
2017-12-17T21:38:31.783Z,29.27
2017-12-17T21:40:58.716Z,22.25
2017-12-17T21:43:25.628Z,27.67
2017-12-17T21:45:52.570Z,35.30
2017-12-17T21:48:19.505Z,35.92
2017-12-17T21:50:46.450Z,32.03
2017-12-17T21:53:13.364Z,24.83
2017-12-17T21:55:41.061Z,29.77
2017-12-17T21:58:08.032Z,24.17
2017-12-17T22:00:34.964Z,28.83
2017-12-17T22:03:01.876Z,23.30
2017-12-17T22:05:29.512Z,28.50
2017-12-17T22:07:56.418Z,28.00
2017-12-17T22:10:24.357Z,23.08
2017-12-17T22:12:52.224Z,22.52
2017-12-17T22:15:19.150Z,19.58
2017-12-17T22:17:46.055Z,34.08
2017-12-17T22:20:13.003Z,26.77
2017-12-17T22:22:39.908Z,25.58
2017-12-17T22:25:06.848Z,25.92
2017-12-17T22:27:33.760Z,20.80
2017-12-17T22:30:01.455Z,25.60
2017-12-17T22:32:28.376Z,34.20
2017-12-17T22:34:55.304Z,31.48
2017-12-17T22:37:22.207Z,30.37
2017-12-17T22:39:49.180Z,27.33
2017-12-17T22:42:16.132Z,24.98
2017-12-17T22:44:43.053Z,27.30
2017-12-17T22:47:10.730Z,30.90
2017-12-17T22:49:37.710Z,24.33
2017-12-17T22:52:04.617Z,28.90
2017-12-17T22:54:31.594Z,33.30
2017-12-17T22:56:58.562Z,30.37
2017-12-17T22:59:25.496Z,32.97
2017-12-17T23:01:52.399Z,28.02
2017-12-17T23:04:19.469Z,33.22
2017-12-17T23:06:46.389Z,27.77
2017-12-17T23:09:13.301Z,28.30
2017-12-17T23:11:40.221Z,29.45
2017-12-17T23:14:07.121Z,34.05
2017-12-17T23:16:34.049Z,30.60
2017-12-17T23:19:01.769Z,31.58
2017-12-17T23:21:28.704Z,27.42
2017-12-17T23:23:55.645Z,33.47
2017-12-17T23:26:22.588Z,30.23
2017-12-17T23:28:49.518Z,31.50
2017-12-17T23:31:16.458Z,33.90
2017-12-17T23:33:44.152Z,29.73
2017-12-17T23:36:11.932Z,37.40
2017-12-17T23:38:39.621Z,30.75
2017-12-17T23:41:06.554Z,36.17
2017-12-17T23:43:33.515Z,40.00
2017-12-17T23:46:00.441Z,33.50
2017-12-17T23:48:27.357Z,35.47
2017-12-17T23:50:54.272Z,42.72
2017-12-17T23:53:21.182Z,33.90
2017-12-17T23:55:48.104Z,34.15
2017-12-17T23:58:15.018Z,38.90
